sensor_id;sensor_type;location;lat;lon;timestamp;pressure;altitude;pressure_sealevel;temperature;humidity
23059;BME280;30585;51.502;7.218;2022-08-11T00:01:10;155189.50;;;19.86;53.93
23059;BME280;30585;51.502;7.218;2022-08-11T00:03:45;155158.25;;;19.73;53.77
23059;BME280;30585;51.502;7.218;2022-08-11T00:06:15;155150.47;;;19.70;53.96
23059;BME280;30585;51.502;7.218;2022-08-11T00:08:50;155114.03;;;19.56;54.93
23059;BME280;30585;51.502;7.218;2022-08-11T00:11:18;155116.66;;;19.57;54.03
23059;BME280;30585;51.502;7.218;2022-08-11T00:13:53;155142.66;;;19.67;54.37
23059;BME280;30585;51.502;7.218;2022-08-11T00:16:23;155108.84;;;19.54;55.20
23059;BME280;30585;51.502;7.218;2022-08-11T00:18:54;155098.47;;;19.50;55.54
23059;BME280;30585;51.502;7.218;2022-08-11T00:21:23;155103.69;;;19.52;55.12
23059;BME280;30585;51.502;7.218;2022-08-11T00:24:11;155067.25;;;19.37;55.25
23059;BME280;30585;51.502;7.218;2022-08-11T00:26:39;155093.25;;;19.48;56.41
23059;BME280;30585;51.502;7.218;2022-08-11T00:29:15;155080.28;;;19.42;55.32
23059;BME280;30585;51.502;7.218;2022-08-11T00:31:47;155036.03;;;19.25;55.74
23059;BME280;30585;51.502;7.218;2022-08-11T00:34:19;155034.75;;;19.24;56.42
23059;BME280;30585;51.502;7.218;2022-08-11T00:36:50;155062.03;;;19.35;56.96
23059;BME280;30585;51.502;7.218;2022-08-11T00:39:21;155049.06;;;19.30;56.88
23059;BME280;30585;51.502;7.218;2022-08-11T00:42:05;155029.56;;;19.22;57.41
23059;BME280;30585;51.502;7.218;2022-08-11T00:44:52;155003.56;;;19.12;58.06
23059;BME280;30585;51.502;7.218;2022-08-11T00:47:28;154965.84;;;18.97;61.10
23059;BME280;30585;51.502;7.218;2022-08-11T00:50:13;154945.03;;;18.89;60.67
23059;BME280;30585;51.502;7.218;2022-08-11T00:52:58;154938.53;;;18.86;60.81
23059;BME280;30585;51.502;7.218;2022-08-11T00:59:05;154891.75;;;18.67;62.53
23059;BME280;30585;51.502;7.218;2022-08-11T01:02:12;154839.78;;;18.47;61.33
23059;BME280;30585;51.502;7.218;2022-08-11T01:05:10;154848.88;;;18.50;61.39
23059;BME280;30585;51.502;7.218;2022-08-11T01:10:51;154774.84;;;18.21;63.28
23059;BME280;30585;51.502;7.218;2022-08-11T01:13:46;154798.22;;;18.30;62.03
23059;BME280;30585;51.502;7.218;2022-08-11T01:16:49;154778.72;;;18.22;62.27
23059;BME280;30585;51.502;7.218;2022-08-11T01:19:47;154769.63;;;18.19;63.47
23059;BME280;30585;51.502;7.218;2022-08-11T01:23:07;154756.63;;;18.14;64.19
23059;BME280;30585;51.502;7.218;2022-08-11T01:26:12;154734.56;;;18.05;62.86
23059;BME280;30585;51.502;7.218;2022-08-11T01:35:47;154690.34;;;17.87;63.53
23059;BME280;30585;51.502;7.218;2022-08-11T01:38:55;154681.28;;;17.84;63.92
23059;BME280;30585;51.502;7.218;2022-08-11T01:41:35;154683.84;;;17.85;64.08
23059;BME280;30585;51.502;7.218;2022-08-11T01:45:02;154656.56;;;17.74;65.55
23059;BME280;30585;51.502;7.218;2022-08-11T01:47:38;154655.31;;;17.73;65.74
23059;BME280;30585;51.502;7.218;2022-08-11T01:50:47;154547.53;;;17.31;67.00
23059;BME280;30585;51.502;7.218;2022-08-11T01:53:29;154591.66;;;17.48;68.56
23059;BME280;30585;51.502;7.218;2022-08-11T01:56:11;154554.00;;;17.33;69.46
23059;BME280;30585;51.502;7.218;2022-08-11T01:58:46;154526.72;;;17.22;70.25
23059;BME280;30585;51.502;7.218;2022-08-11T02:01:33;154503.34;;;17.13;72.38
23059;BME280;30585;51.502;7.218;2022-08-11T02:04:13;154456.63;;;16.94;74.36
23059;BME280;30585;51.502;7.218;2022-08-11T02:06:49;154416.31;;;16.78;74.23
23059;BME280;30585;51.502;7.218;2022-08-11T02:09:40;154368.34;;;16.59;75.91
23059;BME280;30585;51.502;7.218;2022-08-11T02:12:26;154331.97;;;16.45;76.50
23059;BME280;30585;51.502;7.218;2022-08-11T02:15:08;154300.88;;;16.32;77.17
23059;BME280;30585;51.502;7.218;2022-08-11T02:17:48;154274.91;;;16.22;76.42
23059;BME280;30585;51.502;7.218;2022-08-11T02:20:23;154268.44;;;16.19;77.27
23059;BME280;30585;51.502;7.218;2022-08-11T02:23:20;154248.97;;;16.12;76.59
23059;BME280;30585;51.502;7.218;2022-08-11T02:26:39;154238.56;;;16.08;79.05
23059;BME280;30585;51.502;7.218;2022-08-11T02:29:15;154190.59;;;15.88;79.05
23059;BME280;30585;51.502;7.218;2022-08-11T02:32:03;154145.13;;;15.70;81.96
23059;BME280;30585;51.502;7.218;2022-08-11T02:35:04;154097.19;;;15.51;81.24
23059;BME280;30585;51.502;7.218;2022-08-11T02:37:43;154106.25;;;15.55;82.68
23059;BME280;30585;51.502;7.218;2022-08-11T02:40:28;154085.50;;;15.47;82.61
23059;BME280;30585;51.502;7.218;2022-08-11T02:43:08;154037.50;;;15.27;83.64
23059;BME280;30585;51.502;7.218;2022-08-11T02:45:48;154027.16;;;15.23;85.82
23059;BME280;30585;51.502;7.218;2022-08-11T02:48:31;154002.50;;;15.14;83.09
23059;BME280;30585;51.502;7.218;2022-08-11T02:51:22;154042.72;;;15.30;83.26
23059;BME280;30585;51.502;7.218;2022-08-11T02:53:59;154020.66;;;15.21;84.88
23059;BME280;30585;51.502;7.218;2022-08-11T02:56:39;153979.19;;;15.04;85.90
23059;BME280;30585;51.502;7.218;2022-08-11T02:59:22;153968.81;;;15.00;85.58
23059;BME280;30585;51.502;7.218;2022-08-11T03:02:14;153968.81;;;15.00;86.20
23059;BME280;30585;51.502;7.218;2022-08-11T03:04:58;153953.25;;;14.94;87.15
23059;BME280;30585;51.502;7.218;2022-08-11T03:07:30;153946.78;;;14.91;86.47
23059;BME280;30585;51.502;7.218;2022-08-11T03:10:05;153950.66;;;14.93;85.25
23059;BME280;30585;51.502;7.218;2022-08-11T03:12:43;153927.31;;;14.84;85.93
23059;BME280;30585;51.502;7.218;2022-08-11T03:15:37;153927.31;;;14.84;87.22
23059;BME280;30585;51.502;7.218;2022-08-11T03:18:32;153872.81;;;14.62;88.03
23059;BME280;30585;51.502;7.218;2022-08-11T03:21:06;153881.94;;;14.65;88.28
23059;BME280;30585;51.502;7.218;2022-08-11T03:23:40;153837.81;;;14.48;89.26
23059;BME280;30585;51.502;7.218;2022-08-11T03:26:22;153848.22;;;14.52;88.45
23059;BME280;30585;51.502;7.218;2022-08-11T03:29:00;153809.34;;;14.37;90.04
23059;BME280;30585;51.502;7.218;2022-08-11T03:31:35;153798.97;;;14.32;90.83
23059;BME280;30585;51.502;7.218;2022-08-11T03:34:06;153800.28;;;14.33;91.92
23059;BME280;30585;51.502;7.218;2022-08-11T03:36:57;153819.69;;;14.41;91.24
23059;BME280;30585;51.502;7.218;2022-08-11T03:39:53;153814.50;;;14.39;90.71
23059;BME280;30585;51.502;7.218;2022-08-11T03:42:29;153795.09;;;14.31;92.38
23059;BME280;30585;51.502;7.218;2022-08-11T03:45:04;153806.75;;;14.36;90.81
23059;BME280;30585;51.502;7.218;2022-08-11T03:47:44;153795.09;;;14.31;90.91
23059;BME280;30585;51.502;7.218;2022-08-11T03:50:31;153775.66;;;14.23;92.26
23059;BME280;30585;51.502;7.218;2022-08-11T03:53:13;153732.88;;;14.06;92.23
23059;BME280;30585;51.502;7.218;2022-08-11T04:02:19;153741.94;;;14.10;92.54
23059;BME280;30585;51.502;7.218;2022-08-11T04:05:08;153681.06;;;13.85;92.75
23059;BME280;30585;51.502;7.218;2022-08-11T04:17:49;153684.97;;;13.87;95.68
23059;BME280;30585;51.502;7.218;2022-08-11T04:20:46;153639.63;;;13.69;94.70
23059;BME280;30585;51.502;7.218;2022-08-11T04:23:41;153659.06;;;13.77;95.58
23059;BME280;30585;51.502;7.218;2022-08-11T04:27:00;153681.06;;;13.85;95.14
23059;BME280;30585;51.502;7.218;2022-08-11T04:29:49;153669.41;;;13.81;95.87
23059;BME280;30585;51.502;7.218;2022-08-11T04:35:54;153666.84;;;13.80;95.15
23059;BME280;30585;51.502;7.218;2022-08-11T04:38:44;153679.78;;;13.85;95.74
23059;BME280;30585;51.502;7.218;2022-08-11T04:45:07;153710.88;;;13.97;94.66
23059;BME280;30585;51.502;7.218;2022-08-11T04:48:02;153701.81;;;13.94;94.93
23059;BME280;30585;51.502;7.218;2022-08-11T04:51:07;153701.81;;;13.94;96.01
23059;BME280;30585;51.502;7.218;2022-08-11T04:54:04;153696.63;;;13.92;97.10
23059;BME280;30585;51.502;7.218;2022-08-11T04:57:02;153706.97;;;13.96;95.27
23059;BME280;30585;51.502;7.218;2022-08-11T05:00:00;153692.72;;;13.90;96.21
23059;BME280;30585;51.502;7.218;2022-08-11T05:03:39;153754.94;;;14.15;96.07
23059;BME280;30585;51.502;7.218;2022-08-11T05:06:28;153757.53;;;14.16;95.72
23059;BME280;30585;51.502;7.218;2022-08-11T05:09:20;153752.31;;;14.14;93.02
23059;BME280;30585;51.502;7.218;2022-08-11T05:12:19;153809.34;;;14.37;92.64
23059;BME280;30585;51.502;7.218;2022-08-11T05:14:56;153835.28;;;14.47;91.45
23059;BME280;30585;51.502;7.218;2022-08-11T05:17:46;153876.72;;;14.63;92.83
23059;BME280;30585;51.502;7.218;2022-08-11T05:20:44;153926.03;;;14.83;88.34
23059;BME280;30585;51.502;7.218;2022-08-11T05:23:34;153989.56;;;15.08;85.24
23059;BME280;30585;51.502;7.218;2022-08-11T05:26:21;154040.09;;;15.29;84.16
23059;BME280;30585;51.502;7.218;2022-08-11T05:29:26;154089.38;;;15.48;83.03
23059;BME280;30585;51.502;7.218;2022-08-11T05:32:16;154138.66;;;15.68;81.28
23059;BME280;30585;51.502;7.218;2022-08-11T05:35:04;154203.56;;;15.94;81.82
23059;BME280;30585;51.502;7.218;2022-08-11T05:37:40;154232.09;;;16.05;79.96
23059;BME280;30585;51.502;7.218;2022-08-11T05:40:24;154278.78;;;16.24;78.73
23059;BME280;30585;51.502;7.218;2022-08-11T05:43:18;154331.97;;;16.45;79.82
23059;BME280;30585;51.502;7.218;2022-08-11T05:46:27;154377.41;;;16.63;77.69
23059;BME280;30585;51.502;7.218;2022-08-11T05:49:13;154438.41;;;16.87;76.73
23059;BME280;30585;51.502;7.218;2022-08-11T05:51:59;154515.03;;;17.18;72.49
23059;BME280;30585;51.502;7.218;2022-08-11T05:55:01;154559.22;;;17.35;73.53
23059;BME280;30585;51.502;7.218;2022-08-11T05:57:48;154590.34;;;17.48;71.37
23059;BME280;30585;51.502;7.218;2022-08-11T06:00:18;154646.16;;;17.70;72.60
23059;BME280;30585;51.502;7.218;2022-08-11T06:02:50;154715.06;;;17.97;70.96
23059;BME280;30585;51.502;7.218;2022-08-11T06:05:21;154759.22;;;18.15;72.98
23059;BME280;30585;51.502;7.218;2022-08-11T06:07:52;154808.59;;;18.34;66.72
23059;BME280;30585;51.502;7.218;2022-08-11T06:10:29;154844.97;;;18.49;66.81
23059;BME280;30585;51.502;7.218;2022-08-11T06:13:02;154889.16;;;18.66;67.04
23059;BME280;30585;51.502;7.218;2022-08-11T06:15:32;154938.53;;;18.86;65.36
23059;BME280;30585;51.502;7.218;2022-08-11T06:18:02;154932.03;;;18.83;63.91
23059;BME280;30585;51.502;7.218;2022-08-11T06:20:30;155004.88;;;19.12;63.81
23059;BME280;30585;51.502;7.218;2022-08-11T06:23:05;155043.84;;;19.28;63.54
23059;BME280;30585;51.502;7.218;2022-08-11T06:25:36;155130.97;;;19.62;62.67
23059;BME280;30585;51.502;7.218;2022-08-11T06:28:06;155179.03;;;19.82;62.42
23059;BME280;30585;51.502;7.218;2022-08-11T06:30:36;155231.13;;;20.02;63.29
23059;BME280;30585;51.502;7.218;2022-08-11T06:33:10;155253.25;;;20.11;62.22
23059;BME280;30585;51.502;7.218;2022-08-11T06:35:46;155343.00;;;20.47;61.07
23059;BME280;30585;51.502;7.218;2022-08-11T06:38:27;155378.13;;;20.61;57.70
23059;BME280;30585;51.502;7.218;2022-08-11T06:41:00;155388.50;;;20.65;57.10
23059;BME280;30585;51.502;7.218;2022-08-11T06:43:50;155469.25;;;20.97;58.06
23059;BME280;30585;51.502;7.218;2022-08-11T06:46:25;155487.44;;;21.04;58.15
23059;BME280;30585;51.502;7.218;2022-08-11T06:48:55;155582.47;;;21.42;55.88
23059;BME280;30585;51.502;7.218;2022-08-11T06:51:24;155628.03;;;21.60;55.17
23059;BME280;30585;51.502;7.218;2022-08-11T06:54:00;155711.38;;;21.93;54.33
23059;BME280;30585;51.502;7.218;2022-08-11T06:56:34;155715.28;;;21.94;51.51
23059;BME280;30585;51.502;7.218;2022-08-11T06:59:42;155790.78;;;22.24;52.98
23059;BME280;30585;51.502;7.218;2022-08-11T07:02:30;155862.50;;;22.53;54.87
23059;BME280;30585;51.502;7.218;2022-08-11T07:05:02;155871.59;;;22.56;51.59
23059;BME280;30585;51.502;7.218;2022-08-11T07:11:32;155981.00;;;23.00;51.81
23059;BME280;30585;51.502;7.218;2022-08-11T07:14:29;156024.00;;;23.17;49.40
23059;BME280;30585;51.502;7.218;2022-08-11T07:17:19;156070.97;;;23.36;51.56
23059;BME280;30585;51.502;7.218;2022-08-11T07:19:52;156106.13;;;23.49;50.46
23059;BME280;30585;51.502;7.218;2022-08-11T07:22:38;156205.19;;;23.89;49.06
23059;BME280;30585;51.502;7.218;2022-08-11T07:25:31;156306.94;;;24.29;46.98
23059;BME280;30585;51.502;7.218;2022-08-11T07:28:21;156296.47;;;24.25;48.43
23059;BME280;30585;51.502;7.218;2022-08-11T07:31:10;156343.41;;;24.43;47.37
23059;BME280;30585;51.502;7.218;2022-08-11T07:33:45;156304.31;;;24.28;42.42
23059;BME280;30585;51.502;7.218;2022-08-11T07:36:38;156432.16;;;24.79;46.23
23059;BME280;30585;51.502;7.218;2022-08-11T07:39:12;156493.47;;;25.03;44.73
23059;BME280;30585;51.502;7.218;2022-08-11T07:41:42;156502.56;;;25.07;45.07
23059;BME280;30585;51.502;7.218;2022-08-11T07:44:14;156473.88;;;24.95;44.73
23059;BME280;30585;51.502;7.218;2022-08-11T07:46:44;156539.06;;;25.21;44.86
23059;BME280;30585;51.502;7.218;2022-08-11T07:49:34;156421.72;;;24.74;43.97
23059;BME280;30585;51.502;7.218;2022-08-11T07:52:20;156640.88;;;25.61;44.88
23059;BME280;30585;51.502;7.218;2022-08-11T07:54:59;156625.25;;;25.55;42.48
23059;BME280;30585;51.502;7.218;2022-08-11T07:57:30;156466.03;;;24.92;41.41
23059;BME280;30585;51.502;7.218;2022-08-11T08:00:37;156575.63;;;25.35;42.35
23059;BME280;30585;51.502;7.218;2022-08-11T08:03:27;156533.91;;;25.19;40.56
23059;BME280;30585;51.502;7.218;2022-08-11T08:06:22;156674.81;;;25.75;43.45
23059;BME280;30585;51.502;7.218;2022-08-11T08:09:09;156797.53;;;26.23;43.05
23059;BME280;30585;51.502;7.218;2022-08-11T08:11:55;156901.94;;;26.65;40.68
23059;BME280;30585;51.502;7.218;2022-08-11T08:14:41;156954.19;;;26.85;39.90
23059;BME280;30585;51.502;7.218;2022-08-11T08:17:27;157026.03;;;27.14;36.46
23059;BME280;30585;51.502;7.218;2022-08-11T08:20:36;157099.16;;;27.43;38.95
23059;BME280;30585;51.502;7.218;2022-08-11T08:23:06;157182.78;;;27.76;38.54
23059;BME280;30585;51.502;7.218;2022-08-11T08:25:37;156986.84;;;26.98;38.83
23059;BME280;30585;51.502;7.218;2022-08-11T08:28:08;157001.19;;;27.04;40.43
23059;BME280;30585;51.502;7.218;2022-08-11T08:30:37;157044.31;;;27.21;39.21
23059;BME280;30585;51.502;7.218;2022-08-11T08:33:16;157033.88;;;27.17;39.78
23059;BME280;30585;51.502;7.218;2022-08-11T08:35:46;157202.38;;;27.83;37.25
23059;BME280;30585;51.502;7.218;2022-08-11T08:38:23;157276.91;;;28.13;36.84
23059;BME280;30585;51.502;7.218;2022-08-11T08:40:52;157272.97;;;28.11;36.04
23059;BME280;30585;51.502;7.218;2022-08-11T08:43:23;157331.75;;;28.35;35.72
23059;BME280;30585;51.502;7.218;2022-08-11T08:45:54;156967.28;;;26.90;36.10
23059;BME280;30585;51.502;7.218;2022-08-11T08:48:24;156888.91;;;26.59;37.37
23059;BME280;30585;51.502;7.218;2022-08-11T08:50:57;157103.13;;;27.44;37.52
23059;BME280;30585;51.502;7.218;2022-08-11T08:53:51;157227.22;;;27.93;37.65
23059;BME280;30585;51.502;7.218;2022-08-11T08:56:26;157250.75;;;28.03;34.47
23059;BME280;30585;51.502;7.218;2022-08-11T08:58:57;157291.25;;;28.19;35.21
23059;BME280;30585;51.502;7.218;2022-08-11T09:01:27;157465.13;;;28.87;35.31
23059;BME280;30585;51.502;7.218;2022-08-11T09:03:57;157483.41;;;28.95;35.58
23059;BME280;30585;51.502;7.218;2022-08-11T09:06:36;157513.44;;;29.06;33.30
23059;BME280;30585;51.502;7.218;2022-08-11T09:09:10;157563.13;;;29.26;31.97
23059;BME280;30585;51.502;7.218;2022-08-11T09:11:39;157610.22;;;29.45;31.05
23059;BME280;30585;51.502;7.218;2022-08-11T09:14:21;157258.53;;;28.06;34.52
23059;BME280;30585;51.502;7.218;2022-08-11T09:16:51;157544.84;;;29.19;33.38
23059;BME280;30585;51.502;7.218;2022-08-11T09:19:19;157674.28;;;29.70;32.25
23059;BME280;30585;51.502;7.218;2022-08-11T09:21:49;157741.03;;;29.96;32.75
23059;BME280;30585;51.502;7.218;2022-08-11T09:24:39;157863.97;;;30.45;32.94
23059;BME280;30585;51.502;7.218;2022-08-11T09:27:25;157967.34;;;30.86;32.04
23059;BME280;30585;51.502;7.218;2022-08-11T09:29:54;157756.72;;;30.03;32.67
23059;BME280;30585;51.502;7.218;2022-08-11T09:32:23;157867.88;;;30.46;30.32
23059;BME280;30585;51.502;7.218;2022-08-11T09:34:52;157934.66;;;30.73;30.83
23059;BME280;30585;51.502;7.218;2022-08-11T09:37:21;157959.53;;;30.83;29.87
23059;BME280;30585;51.502;7.218;2022-08-11T09:40:24;157963.44;;;30.84;29.88
23059;BME280;30585;51.502;7.218;2022-08-11T09:42:56;158052.44;;;31.19;29.16
23059;BME280;30585;51.502;7.218;2022-08-11T09:45:44;158069.47;;;31.26;28.82
23059;BME280;30585;51.502;7.218;2022-08-11T09:48:16;158073.38;;;31.28;26.77
23059;BME280;30585;51.502;7.218;2022-08-11T09:50:47;158042.00;;;31.15;26.57
23059;BME280;30585;51.502;7.218;2022-08-11T09:53:17;157984.38;;;30.92;27.59
23059;BME280;30585;51.502;7.218;2022-08-11T09:56:10;158110.03;;;31.42;28.99
23059;BME280;30585;51.502;7.218;2022-08-11T09:58:57;158157.13;;;31.61;27.87
23059;BME280;30585;51.502;7.218;2022-08-11T10:01:29;158191.22;;;31.74;26.96
23059;BME280;30585;51.502;7.218;2022-08-11T10:04:00;158288.09;;;32.12;28.38
23059;BME280;30585;51.502;7.218;2022-08-11T10:06:30;158335.25;;;32.31;28.08
23059;BME280;30585;51.502;7.218;2022-08-11T10:09:22;158411.16;;;32.61;26.10
23059;BME280;30585;51.502;7.218;2022-08-11T10:11:56;158434.78;;;32.70;27.31
23059;BME280;30585;51.502;7.218;2022-08-11T10:14:26;158429.53;;;32.68;25.40
23059;BME280;30585;51.502;7.218;2022-08-11T10:17:14;158471.47;;;32.85;25.54
23059;BME280;30585;51.502;7.218;2022-08-11T10:19:45;158411.16;;;32.61;24.30
23059;BME280;30585;51.502;7.218;2022-08-11T10:22:31;158491.13;;;32.92;25.26
23059;BME280;30585;51.502;7.218;2022-08-11T10:25:17;158510.72;;;33.00;25.80
23059;BME280;30585;51.502;7.218;2022-08-11T10:28:07;158594.59;;;33.33;24.71
23059;BME280;30585;51.502;7.218;2022-08-11T10:30:55;158454.38;;;32.78;23.44
23059;BME280;30585;51.502;7.218;2022-08-11T10:33:43;158416.41;;;32.63;26.15
23059;BME280;30585;51.502;7.218;2022-08-11T10:36:28;158527.75;;;33.07;25.31
23059;BME280;30585;51.502;7.218;2022-08-11T10:38:58;158518.59;;;33.03;27.46
23059;BME280;30585;51.502;7.218;2022-08-11T10:41:27;158620.81;;;33.44;25.47
23059;BME280;30585;51.502;7.218;2022-08-11T10:44:37;158696.78;;;33.74;25.49
23059;BME280;30585;51.502;7.218;2022-08-11T10:47:06;158768.88;;;34.02;25.41
23059;BME280;30585;51.502;7.218;2022-08-11T10:49:52;158543.50;;;33.13;25.17
23059;BME280;30585;51.502;7.218;2022-08-11T10:52:35;158582.78;;;33.29;25.37
23059;BME280;30585;51.502;7.218;2022-08-11T10:55:22;158598.53;;;33.35;25.84
23059;BME280;30585;51.502;7.218;2022-08-11T10:58:08;158584.06;;;33.29;23.42
23059;BME280;30585;51.502;7.218;2022-08-11T11:00:55;158504.19;;;32.98;23.88
23059;BME280;30585;51.502;7.218;2022-08-11T11:03:25;158540.88;;;33.12;25.91
23059;BME280;30585;51.502;7.218;2022-08-11T11:05:56;158536.91;;;33.10;25.92
23059;BME280;30585;51.502;7.218;2022-08-11T11:08:48;158375.81;;;32.47;27.17
23059;BME280;30585;51.502;7.218;2022-08-11T11:11:34;158510.72;;;33.00;24.18
23059;BME280;30585;51.502;7.218;2022-08-11T11:14:21;158422.94;;;32.66;25.82
23059;BME280;30585;51.502;7.218;2022-08-11T11:17:24;158536.91;;;33.10;23.93
23059;BME280;30585;51.502;7.218;2022-08-11T11:20:13;158539.53;;;33.12;23.66
23059;BME280;30585;51.502;7.218;2022-08-11T11:23:05;158593.31;;;33.33;26.19
23059;BME280;30585;51.502;7.218;2022-08-11T11:25:57;158470.16;;;32.84;24.99
23059;BME280;30585;51.502;7.218;2022-08-11T11:31:50;158019.69;;;31.06;25.87
23059;BME280;30585;51.502;7.218;2022-08-11T11:34:36;158361.44;;;32.41;26.30
23059;BME280;30585;51.502;7.218;2022-08-11T11:37:19;158544.78;;;33.14;24.97
23059;BME280;30585;51.502;7.218;2022-08-11T11:39:49;158694.16;;;33.72;25.27
23059;BME280;30585;51.502;7.218;2022-08-11T11:42:19;158364.03;;;32.42;25.98
23059;BME280;30585;51.502;7.218;2022-08-11T11:44:49;158481.97;;;32.89;24.37
23059;BME280;30585;51.502;7.218;2022-08-11T11:47:22;158678.47;;;33.66;24.77
23059;BME280;30585;51.502;7.218;2022-08-11T11:49:52;158754.44;;;33.96;24.92
23059;BME280;30585;51.502;7.218;2022-08-11T11:52:21;158645.66;;;33.53;22.80
23059;BME280;30585;51.502;7.218;2022-08-11T11:54:54;158199.06;;;31.77;23.85
23059;BME280;30585;51.502;7.218;2022-08-11T11:57:23;158437.34;;;32.71;23.77
23059;BME280;30585;51.502;7.218;2022-08-11T12:00:25;158660.09;;;33.59;24.42
23059;BME280;30585;51.502;7.218;2022-08-11T12:03:11;158816.03;;;34.21;25.16
23059;BME280;30585;51.502;7.218;2022-08-11T12:05:42;158858.00;;;34.37;24.46
23059;BME280;30585;51.502;7.218;2022-08-11T12:08:11;158810.81;;;34.18;22.11
23059;BME280;30585;51.502;7.218;2022-08-11T12:10:47;158649.63;;;33.55;22.95
23059;BME280;30585;51.502;7.218;2022-08-11T12:13:17;158709.88;;;33.79;24.41
23059;BME280;30585;51.502;7.218;2022-08-11T12:16:03;158629.97;;;33.47;24.02
23059;BME280;30585;51.502;7.218;2022-08-11T12:18:52;158746.63;;;33.93;25.53
23059;BME280;30585;51.502;7.218;2022-08-11T12:21:23;158742.66;;;33.92;22.53
23059;BME280;30585;51.502;7.218;2022-08-11T12:23:54;158724.28;;;33.84;23.40
23059;BME280;30585;51.502;7.218;2022-08-11T12:26:41;158711.19;;;33.79;22.55
23059;BME280;30585;51.502;7.218;2022-08-11T12:29:44;158761.03;;;33.99;22.15
23059;BME280;30585;51.502;7.218;2022-08-11T12:32:21;158762.31;;;33.99;23.23
23059;BME280;30585;51.502;7.218;2022-08-11T12:34:49;158677.13;;;33.66;23.26
23059;BME280;30585;51.502;7.218;2022-08-11T12:37:23;158754.44;;;33.96;25.61
23059;BME280;30585;51.502;7.218;2022-08-11T12:39:59;158848.81;;;34.33;22.55
23059;BME280;30585;51.502;7.218;2022-08-11T12:43:09;158964.19;;;34.79;23.78
23059;BME280;30585;51.502;7.218;2022-08-11T12:46:10;158948.44;;;34.73;24.02
23059;BME280;30585;51.502;7.218;2022-08-11T12:48:43;158924.84;;;34.63;22.34
23059;BME280;30585;51.502;7.218;2022-08-11T12:51:32;158917.00;;;34.60;23.39
23059;BME280;30585;51.502;7.218;2022-08-11T12:54:55;158914.38;;;34.59;23.00
23059;BME280;30585;51.502;7.218;2022-08-11T12:57:29;158761.03;;;33.99;24.00
23059;BME280;30585;51.502;7.218;2022-08-11T13:00:17;158958.94;;;34.77;23.23
23059;BME280;30585;51.502;7.218;2022-08-11T13:03:05;159058.59;;;35.16;23.78
23059;BME280;30585;51.502;7.218;2022-08-11T13:05:52;158977.28;;;34.84;23.28
23059;BME280;30585;51.502;7.218;2022-08-11T13:08:22;159116.28;;;35.39;22.80
23059;BME280;30585;51.502;7.218;2022-08-11T13:10:53;159054.69;;;35.15;21.81
23059;BME280;30585;51.502;7.218;2022-08-11T13:13:40;158949.75;;;34.73;22.81
23059;BME280;30585;51.502;7.218;2022-08-11T13:16:23;159003.53;;;34.94;22.93
23059;BME280;30585;51.502;7.218;2022-08-11T13:18:52;159052.06;;;35.14;22.62
23059;BME280;30585;51.502;7.218;2022-08-11T13:21:20;158858.00;;;34.37;21.59
23059;BME280;30585;51.502;7.218;2022-08-11T13:23:51;158775.44;;;34.05;21.71
23059;BME280;30585;51.502;7.218;2022-08-11T13:26:30;158754.44;;;33.96;21.94
23059;BME280;30585;51.502;7.218;2022-08-11T13:29:15;158741.38;;;33.91;22.66
23059;BME280;30585;51.502;7.218;2022-08-11T13:31:44;158674.50;;;33.65;21.85
23059;BME280;30585;51.502;7.218;2022-08-11T13:34:14;158738.75;;;33.90;22.81
23059;BME280;30585;51.502;7.218;2022-08-11T13:36:42;158797.69;;;34.13;21.04
23059;BME280;30585;51.502;7.218;2022-08-11T13:39:11;158665.34;;;33.61;21.80
23059;BME280;30585;51.502;7.218;2022-08-11T13:41:41;158746.63;;;33.93;22.59
23059;BME280;30585;51.502;7.218;2022-08-11T13:44:14;158894.72;;;34.52;22.20
23059;BME280;30585;51.502;7.218;2022-08-11T13:46:51;159055.97;;;35.15;23.66
23059;BME280;30585;51.502;7.218;2022-08-11T13:49:20;158667.97;;;33.62;23.78
23059;BME280;30585;51.502;7.218;2022-08-11T13:51:48;158930.09;;;34.66;23.25
23059;BME280;30585;51.502;7.218;2022-08-11T13:54:18;158994.38;;;34.91;22.39
23059;BME280;30585;51.502;7.218;2022-08-11T13:56:53;159049.44;;;35.13;20.97
23059;BME280;30585;51.502;7.218;2022-08-11T13:59:22;159103.16;;;35.34;22.41
23059;BME280;30585;51.502;7.218;2022-08-11T14:01:59;159139.94;;;35.48;21.86
23059;BME280;30585;51.502;7.218;2022-08-11T14:04:52;159126.81;;;35.43;20.41
23059;BME280;30585;51.502;7.218;2022-08-11T14:07:23;159179.25;;;35.64;20.78
23059;BME280;30585;51.502;7.218;2022-08-11T14:09:55;159221.19;;;35.80;20.48
23059;BME280;30585;51.502;7.218;2022-08-11T14:12:27;159003.53;;;34.94;19.91
23059;BME280;30585;51.502;7.218;2022-08-11T14:15:17;158985.16;;;34.87;21.02
23059;BME280;30585;51.502;7.218;2022-08-11T14:17:50;159029.75;;;35.05;21.92
23059;BME280;30585;51.502;7.218;2022-08-11T14:20:19;159036.28;;;35.07;21.19
23059;BME280;30585;51.502;7.218;2022-08-11T14:23:04;159019.28;;;35.01;19.60
23059;BME280;30585;51.502;7.218;2022-08-11T14:25:32;159027.13;;;35.04;20.11
23059;BME280;30585;51.502;7.218;2022-08-11T14:28:22;158626.06;;;33.46;21.42
23059;BME280;30585;51.502;7.218;2022-08-11T14:30:58;158888.16;;;34.49;21.93
23059;BME280;30585;51.502;7.218;2022-08-11T14:33:29;158897.34;;;34.53;20.37
23059;BME280;30585;51.502;7.218;2022-08-11T14:36:20;158783.28;;;34.08;20.37
23059;BME280;30585;51.502;7.218;2022-08-11T14:38:49;158875.03;;;34.44;21.75
23059;BME280;30585;51.502;7.218;2022-08-11T14:41:19;158937.97;;;34.69;21.09
23059;BME280;30585;51.502;7.218;2022-08-11T14:44:26;158952.38;;;34.74;21.44
23059;BME280;30585;51.502;7.218;2022-08-11T14:47:13;158835.69;;;34.28;22.04
23059;BME280;30585;51.502;7.218;2022-08-11T14:49:52;158833.06;;;34.27;22.02